createdAt,value
2023-01-13T00:00:03.269Z,99414.38
2023-01-13T00:02:38.634Z,99408.50
2023-01-13T00:05:05.804Z,99406.06
2023-01-13T00:07:32.404Z,99403.41
2023-01-13T00:09:59.021Z,99404.19
2023-01-13T00:12:25.623Z,99400.75
2023-01-13T00:14:52.318Z,99401.63
2023-01-13T00:17:18.944Z,99391.56
2023-01-13T00:19:46.594Z,99403.06
2023-01-13T00:22:13.331Z,99394.97
2023-01-13T00:24:40.089Z,99383.81
2023-01-13T00:27:06.761Z,99387.94
2023-01-13T00:29:33.410Z,99379.03
2023-01-13T00:32:00.415Z,99382.13
2023-01-13T00:34:29.925Z,99384.97
2023-01-13T00:36:58.746Z,99397.66
2023-01-13T00:39:25.302Z,99394.16
2023-01-13T00:42:10.475Z,99382.31
2023-01-13T00:44:37.043Z,99382.69
2023-01-13T00:47:03.690Z,99386.19
2023-01-13T00:49:30.277Z,99375.31
2023-01-13T00:51:56.796Z,99375.69
2023-01-13T00:54:23.533Z,99377.31
2023-01-13T00:56:50.061Z,99375.44
2023-01-13T00:59:16.673Z,99377.84
2023-01-13T01:01:43.348Z,99382.78
2023-01-13T01:04:10.066Z,99373.72
2023-01-13T01:06:36.691Z,99379.25
2023-01-13T01:09:04.247Z,99378.44
2023-01-13T01:11:32.452Z,99370.81
2023-01-13T01:14:01.635Z,99366.91
2023-01-13T01:16:29.801Z,99370.34
2023-01-13T01:18:56.822Z,99370.09
2023-01-13T01:21:25.553Z,99366.97
2023-01-13T01:23:53.975Z,99355.31
2023-01-13T01:26:23.472Z,99359.78
2023-01-13T01:28:50.472Z,99360.72
2023-01-13T01:34:39.628Z,99358.44
2023-01-13T01:37:15.256Z,99342.91
2023-01-13T04:30:51.139Z,99280.75
2023-01-13T04:33:19.167Z,99287.88
2023-01-13T04:35:46.858Z,99273.44
2023-01-13T04:38:15.328Z,99269.38
2023-01-13T04:40:42.437Z,99275.53
2023-01-13T04:43:09.117Z,99278.34
2023-01-13T04:45:36.095Z,99277.63
2023-01-13T04:48:02.731Z,99274.34
2023-01-13T04:50:29.439Z,99275.63
2023-01-13T04:52:56.407Z,99274.59
2023-01-13T04:55:24.811Z,99263.19
2023-01-13T04:57:51.882Z,99257.63
2023-01-13T05:00:20.892Z,99258.88
2023-01-13T05:02:50.031Z,99258.88
2023-01-13T05:05:17.000Z,99267.44
2023-01-13T05:07:43.679Z,99260.31
2023-01-13T05:10:10.927Z,99257.31
2023-01-13T05:12:56.108Z,99253.19
2023-01-13T05:15:41.671Z,99256.84
2023-01-13T05:18:08.692Z,99254.84
2023-01-13T05:20:35.416Z,99242.41
2023-01-13T05:23:20.593Z,99249.94
2023-01-13T05:25:48.421Z,99250.09
2023-01-13T07:06:17.570Z,99281.88
2023-01-13T07:08:44.278Z,99299.47
2023-01-13T07:11:10.919Z,99297.22
2023-01-13T07:13:56.576Z,99299.19
2023-01-13T07:16:24.356Z,99297.44
2023-01-13T07:18:51.140Z,99289.19
2023-01-13T07:21:19.983Z,99291.44
2023-01-13T07:23:47.439Z,99283.72
2023-01-13T07:26:14.817Z,99280.03
2023-01-13T07:28:41.695Z,99282.19
2023-01-13T07:31:16.857Z,99277.75
2023-01-13T07:33:43.759Z,99295.19
2023-01-13T07:36:10.587Z,99285.88
2023-01-13T07:38:39.702Z,99271.22
2023-01-13T07:41:32.818Z,99277.41
2023-01-13T07:44:00.465Z,99275.22
2023-01-13T07:46:27.177Z,99269.72
2023-01-13T07:48:53.780Z,99275.13
2023-01-13T07:51:20.377Z,99268.00
2023-01-13T07:53:46.960Z,99268.22
2023-01-13T07:56:13.665Z,99264.34
2023-01-13T07:58:40.329Z,99264.81
2023-01-13T08:01:12.339Z,99272.44
2023-01-13T08:03:42.492Z,99262.28
2023-01-13T08:06:10.336Z,99266.00
2023-01-13T08:08:37.416Z,99276.44
2023-01-13T08:11:05.970Z,99279.16
2023-01-13T08:13:32.574Z,99277.53
2023-01-13T08:16:04.582Z,99284.75
2023-01-13T08:18:32.082Z,99300.47
2023-01-13T08:21:02.776Z,99291.22
2023-01-13T08:23:29.365Z,99303.50
2023-01-13T08:26:00.267Z,99304.19
2023-01-13T08:28:26.985Z,99301.31
2023-01-13T08:30:54.268Z,99306.25
2023-01-13T08:33:21.224Z,99302.16
2023-01-13T08:35:49.088Z,99305.88
2023-01-13T08:38:15.746Z,99297.50
2023-01-13T08:40:42.305Z,99302.41
2023-01-13T08:43:08.874Z,99306.53
2023-01-13T08:45:36.162Z,99311.88
2023-01-13T08:48:03.394Z,99323.78
2023-01-13T08:50:30.075Z,99319.88
2023-01-13T08:52:56.784Z,99326.84
2023-01-13T08:55:23.398Z,99322.38
2023-01-13T08:57:49.988Z,99317.28
2023-01-13T09:00:17.257Z,99317.69
2023-01-13T09:02:45.105Z,99317.75
2023-01-13T09:05:11.774Z,99309.75
2023-01-13T09:07:38.942Z,99312.44
2023-01-13T09:10:07.064Z,99312.25
2023-01-13T09:12:52.023Z,99306.09
2023-01-13T09:15:18.827Z,99297.91
2023-01-13T09:17:45.873Z,99289.50
2023-01-13T09:20:24.769Z,99287.25
2023-01-13T09:22:51.432Z,99289.09
2023-01-13T09:25:18.265Z,99287.03
2023-01-13T09:27:44.859Z,99283.75
2023-01-13T09:30:11.774Z,99281.31
2023-01-13T09:32:38.629Z,99272.91
2023-01-13T09:35:07.679Z,99275.97
2023-01-13T09:37:39.476Z,99274.94
2023-01-13T09:40:13.257Z,99264.06
2023-01-13T09:43:02.811Z,99267.97
2023-01-13T09:45:42.659Z,99260.13
2023-01-13T09:48:18.351Z,99263.59
2023-01-13T09:50:49.889Z,99255.38
2023-01-13T09:53:43.851Z,99255.69
2023-01-13T09:56:11.416Z,99250.72
2023-01-13T09:58:38.015Z,99238.78
2023-01-13T10:01:26.488Z,99236.88
2023-01-13T10:03:53.628Z,99238.72
2023-01-13T10:06:22.384Z,99237.66
2023-01-13T10:08:49.713Z,99238.63
2023-01-13T10:11:38.235Z,99230.78
2023-01-13T10:14:19.191Z,99234.19
2023-01-13T10:17:06.485Z,99230.03
2023-01-13T10:19:57.974Z,99228.13
2023-01-13T10:22:43.550Z,99233.91
2023-01-13T10:25:20.538Z,99229.03
2023-01-13T10:27:50.226Z,99230.13
2023-01-13T10:30:31.463Z,99229.09
2023-01-13T10:33:01.263Z,99234.03
2023-01-13T10:35:52.689Z,99218.28
2023-01-13T10:38:46.372Z,99215.34
2023-01-13T10:41:15.712Z,99214.78
2023-01-13T10:43:44.501Z,99213.66
2023-01-13T10:46:15.972Z,99207.41
2023-01-13T10:48:45.068Z,99202.50
2023-01-13T10:51:20.850Z,99200.88
2023-01-13T10:53:56.679Z,99199.16
2023-01-13T10:56:26.034Z,99197.06
2023-01-13T10:58:52.707Z,99183.84
2023-01-13T11:01:26.992Z,99178.09
2023-01-13T11:03:54.913Z,99172.88
2023-01-13T11:06:27.022Z,99178.44
2023-01-13T11:08:55.355Z,99171.66
2023-01-13T11:11:29.436Z,99165.13
2023-01-13T11:14:17.207Z,99147.44
2023-01-13T11:16:53.045Z,99154.22
2023-01-13T11:19:22.770Z,99149.53
2023-01-13T11:22:01.293Z,99150.94
2023-01-13T11:24:51.314Z,99141.50
2023-01-13T11:27:24.368Z,99138.16
2023-01-13T11:30:12.845Z,99137.69
2023-01-13T11:33:15.082Z,99132.44
2023-01-13T11:35:45.561Z,99130.50
2023-01-13T11:38:27.397Z,99129.69
2023-01-13T11:40:58.252Z,99130.63
2023-01-13T11:43:42.960Z,99140.06
2023-01-13T11:46:10.206Z,99133.66
2023-01-13T11:48:41.361Z,99143.66
2023-01-13T11:51:13.978Z,99144.09
2023-01-13T11:54:01.706Z,99134.47
2023-01-13T11:57:04.172Z,99132.94
2023-01-13T11:59:33.475Z,99139.69
2023-01-13T12:02:05.450Z,99140.88
2023-01-13T12:04:41.343Z,99142.63
2023-01-13T12:07:25.066Z,99137.72
2023-01-13T12:10:13.900Z,99136.00
2023-01-13T12:13:22.178Z,99128.09
2023-01-13T12:15:48.719Z,99127.84
2023-01-13T12:18:39.872Z,99110.34
2023-01-13T12:21:21.117Z,99102.56
2023-01-13T12:24:10.720Z,99110.50
2023-01-13T12:26:40.468Z,99112.66
2023-01-13T12:29:12.951Z,99109.84
2023-01-13T12:31:40.628Z,99110.91
2023-01-13T12:34:13.472Z,99109.59
2023-01-13T12:36:58.527Z,99103.09
2023-01-13T12:40:01.141Z,99105.59
2023-01-13T12:43:08.796Z,99110.94
2023-01-13T12:45:35.595Z,99101.56
2023-01-13T12:48:02.243Z,99105.88
2023-01-13T12:50:29.173Z,99110.06
2023-01-13T12:53:00.466Z,99110.91
2023-01-13T12:55:36.465Z,99114.03
2023-01-13T12:58:15.383Z,99120.31
2023-01-13T13:00:41.921Z,99127.22
2023-01-13T13:03:11.603Z,99127.69
2023-01-13T13:05:40.997Z,99119.44
2023-01-13T13:08:36.539Z,99137.00
2023-01-13T13:11:38.526Z,99125.13
2023-01-13T13:14:07.769Z,99124.88
2023-01-13T13:16:49.934Z,99119.78
2023-01-13T13:19:22.411Z,99129.06
2023-01-13T13:22:18.039Z,99129.66
2023-01-13T13:24:57.476Z,99130.75
2023-01-13T13:27:41.416Z,99145.03
2023-01-13T13:30:28.213Z,99148.84
2023-01-13T13:33:13.656Z,99155.22
2023-01-13T13:36:03.115Z,99155.09
2023-01-13T13:38:57.666Z,99162.38
2023-01-13T13:41:44.739Z,99145.91
2023-01-13T13:44:39.944Z,99151.97
2023-01-13T13:47:07.156Z,99158.88
2023-01-13T13:49:40.735Z,99157.53
2023-01-13T13:52:15.398Z,99166.69
2023-01-13T13:54:47.447Z,99172.63
2023-01-13T13:57:17.260Z,99179.50
2023-01-13T13:59:43.853Z,99178.97
2023-01-13T14:02:24.420Z,99188.59
2023-01-13T14:04:51.219Z,99185.16
2023-01-13T14:07:21.061Z,99188.28
2023-01-13T14:09:54.352Z,99177.38
2023-01-13T14:12:23.319Z,99185.91
2023-01-13T14:14:50.917Z,99178.16
2023-01-13T14:17:19.210Z,99192.84
2023-01-13T14:19:51.462Z,99195.09
2023-01-13T14:22:18.273Z,99201.09
2023-01-13T14:24:47.271Z,99203.38
2023-01-13T14:27:17.164Z,99208.97
2023-01-13T14:29:44.335Z,99196.31
2023-01-13T14:32:17.656Z,99201.84
2023-01-13T14:34:44.505Z,99186.06
2023-01-13T14:37:31.464Z,99177.66
2023-01-13T14:39:58.178Z,99178.69
2023-01-13T14:42:25.363Z,99185.72
2023-01-13T14:44:52.048Z,99185.97
2023-01-13T14:47:31.866Z,99193.53
2023-01-13T14:50:27.779Z,99182.06
2023-01-13T14:52:56.889Z,99178.41
2023-01-13T14:55:36.424Z,99179.22
2023-01-13T14:58:21.643Z,99181.69
2023-01-13T15:00:49.581Z,99180.28
2023-01-13T15:03:17.697Z,99177.63
2023-01-13T15:05:53.555Z,99183.78
2023-01-13T15:08:26.195Z,99174.38
2023-01-13T15:11:00.055Z,99174.97
2023-01-13T15:13:53.145Z,99143.44
2023-01-13T15:16:27.601Z,99141.41
2023-01-13T15:18:55.620Z,99177.47
2023-01-13T15:21:23.062Z,99194.84
2023-01-13T15:23:49.979Z,99202.03
2023-01-13T15:26:24.323Z,99202.47
2023-01-13T15:28:51.750Z,99202.03
2023-01-13T15:31:18.577Z,99204.09
2023-01-13T15:33:45.279Z,99207.75
2023-01-13T15:36:20.869Z,99205.91
2023-01-13T15:38:47.587Z,99215.31
2023-01-13T15:41:14.217Z,99204.47
2023-01-13T15:43:59.196Z,99199.97
2023-01-13T15:46:37.930Z,99204.47
2023-01-13T15:49:34.963Z,99204.25
2023-01-13T15:52:05.982Z,99202.81
2023-01-13T15:54:32.622Z,99197.03
2023-01-13T15:56:59.327Z,99189.44
2023-01-13T15:59:27.650Z,99196.00
2023-01-13T16:01:54.214Z,99192.94
2023-01-13T16:04:20.760Z,99214.13
2023-01-13T16:06:47.628Z,99225.13
2023-01-13T16:09:15.132Z,99238.59
2023-01-13T16:11:41.728Z,99241.25
2023-01-13T16:14:08.309Z,99232.28
2023-01-13T16:16:35.758Z,99242.28
2023-01-13T16:19:02.416Z,99252.72
2023-01-13T16:21:29.054Z,99247.44
2023-01-13T16:23:55.623Z,99269.72
2023-01-13T16:26:26.416Z,99278.94
2023-01-13T16:28:54.919Z,99289.25
2023-01-13T16:31:26.683Z,99313.06
2023-01-13T16:33:53.606Z,99283.19
2023-01-13T16:36:21.595Z,99313.06
2023-01-13T16:38:49.558Z,99304.94
2023-01-13T16:41:16.247Z,99320.59
2023-01-13T16:43:43.843Z,99340.91
2023-01-13T16:46:29.712Z,99340.91
2023-01-13T16:49:01.417Z,99334.16
2023-01-13T16:51:28.194Z,99351.91
2023-01-13T16:53:54.866Z,99343.16
2023-01-13T16:56:23.425Z,99340.31
2023-01-13T16:58:51.815Z,99350.50
2023-01-13T17:01:24.208Z,99347.03
2023-01-13T17:03:51.637Z,99317.41
2023-01-13T17:06:21.697Z,99303.50
2023-01-13T17:08:48.595Z,99300.44
2023-01-13T17:11:15.376Z,99296.09
2023-01-13T17:13:42.198Z,99274.00
2023-01-13T17:16:16.473Z,99270.91
2023-01-13T17:18:43.145Z,99283.38
2023-01-13T17:21:09.702Z,99266.41
2023-01-13T17:23:36.343Z,99293.34
2023-01-13T17:26:02.900Z,99302.56
2023-01-13T17:28:29.555Z,99290.09
2023-01-13T17:30:56.108Z,99293.94
2023-01-13T17:33:22.737Z,99297.81
2023-01-13T17:35:49.283Z,99290.47
2023-01-13T17:38:16.197Z,99314.66
2023-01-13T17:40:42.724Z,99303.22
2023-01-13T17:43:09.271Z,99286.03
2023-01-13T17:45:40.685Z,99301.91
2023-01-13T17:48:07.425Z,99312.19
2023-01-13T17:50:34.904Z,99300.97
2023-01-13T17:53:01.552Z,99304.56
2023-01-13T17:55:28.139Z,99301.19
2023-01-13T17:57:54.737Z,99290.63
2023-01-13T18:00:21.632Z,99288.75
2023-01-13T18:02:48.349Z,99298.50
2023-01-13T18:05:15.083Z,99311.22
2023-01-13T18:07:41.774Z,99322.66
2023-01-13T18:10:09.011Z,99332.72
2023-01-13T18:12:35.587Z,99326.56
2023-01-13T18:15:02.144Z,99331.00
2023-01-13T18:17:28.756Z,99351.91
2023-01-13T18:20:13.963Z,99345.00
2023-01-13T18:22:59.073Z,99324.78
2023-01-13T18:25:44.003Z,99366.13
2023-01-13T18:28:10.627Z,99387.97
2023-01-13T18:30:37.255Z,99371.78
2023-01-13T18:33:03.875Z,99404.88
2023-01-13T18:35:30.443Z,99382.56
2023-01-13T18:37:57.074Z,99378.56
2023-01-13T18:40:23.621Z,99376.97
2023-01-13T18:42:54.434Z,99389.03
2023-01-13T18:45:29.572Z,99391.09
2023-01-13T18:47:58.757Z,99412.59
2023-01-13T18:50:26.030Z,99406.69
2023-01-13T18:52:52.783Z,99411.16
2023-01-13T18:55:19.873Z,99436.13
2023-01-13T18:57:47.078Z,99440.00
2023-01-13T19:00:17.310Z,99449.63
2023-01-13T19:02:44.098Z,99443.66
2023-01-13T19:05:10.775Z,99445.50
2023-01-13T19:07:37.496Z,99436.19
2023-01-13T19:10:05.180Z,99440.25
2023-01-13T19:12:33.618Z,99448.63
2023-01-13T19:15:01.324Z,99445.50
2023-01-13T19:17:31.818Z,99447.16
2023-01-13T19:19:59.361Z,99448.38
2023-01-13T19:22:32.692Z,99449.72
2023-01-13T19:25:00.351Z,99465.91
2023-01-13T19:27:27.602Z,99484.72
2023-01-13T19:29:57.477Z,99475.69
2023-01-13T19:32:24.616Z,99489.72
2023-01-13T19:34:51.587Z,99487.44
2023-01-13T19:37:19.269Z,99479.13
2023-01-13T19:39:45.821Z,99474.66
2023-01-13T19:42:31.924Z,99466.75
2023-01-13T19:45:17.274Z,99479.09
2023-01-13T19:47:45.543Z,99490.66
2023-01-13T19:50:13.605Z,99483.25
2023-01-13T19:52:41.438Z,99481.00
2023-01-13T19:55:08.140Z,99500.88
2023-01-13T19:57:34.779Z,99510.34
2023-01-13T20:00:01.465Z,99509.72
2023-01-13T20:02:28.263Z,99514.88
2023-01-13T20:04:56.200Z,99506.66
2023-01-13T20:07:24.498Z,99520.00
2023-01-13T20:09:52.112Z,99525.31
2023-01-13T20:12:22.802Z,99537.44
2023-01-13T20:14:49.960Z,99525.13
2023-01-13T20:17:18.440Z,99524.69
2023-01-13T20:19:45.035Z,99525.91
2023-01-13T20:22:11.848Z,99531.06
2023-01-13T20:24:38.658Z,99524.69
2023-01-13T20:27:05.800Z,99528.63
2023-01-13T20:29:32.512Z,99519.59
2023-01-13T20:31:59.113Z,99521.19
2023-01-13T20:34:26.153Z,99516.06
2023-01-13T20:36:53.099Z,99522.03
2023-01-13T20:39:22.408Z,99524.06
2023-01-13T20:42:07.769Z,99520.56
2023-01-13T20:44:34.424Z,99530.69
2023-01-13T20:47:02.725Z,99512.78
2023-01-13T20:49:30.301Z,99517.94
2023-01-13T20:51:57.433Z,99519.38
2023-01-13T20:54:24.423Z,99518.13
2023-01-13T20:56:51.091Z,99517.34
2023-01-13T20:59:17.860Z,99529.41
2023-01-13T21:01:44.472Z,99516.94
2023-01-13T21:04:11.190Z,99517.75
2023-01-13T21:06:37.826Z,99512.22
2023-01-13T21:09:04.551Z,99517.94
2023-01-13T21:11:51.403Z,99513.25
2023-01-13T21:14:39.506Z,99518.56
2023-01-13T21:17:07.317Z,99510.34
2023-01-13T21:19:34.012Z,99504.00
2023-01-13T21:22:00.708Z,99521.00
2023-01-13T21:24:27.316Z,99519.59
2023-01-13T21:26:57.893Z,99520.41
2023-01-13T21:29:24.586Z,99516.91
2023-01-13T21:31:51.242Z,99510.56
2023-01-13T21:34:18.461Z,99509.53
2023-01-13T21:36:45.163Z,99518.75
2023-01-13T21:39:14.087Z,99526.34
2023-01-13T21:42:03.877Z,99521.00
2023-01-13T21:44:49.335Z,99529.81
2023-01-13T21:47:37.056Z,99526.31
2023-01-13T21:50:07.642Z,99519.34
2023-01-13T21:52:34.362Z,99530.16
2023-01-13T21:55:19.545Z,99548.66
2023-01-13T21:57:47.255Z,99548.00
2023-01-13T22:00:14.541Z,99560.91
2023-01-13T22:02:41.289Z,99560.91
2023-01-13T22:05:08.991Z,99566.44
2023-01-13T22:07:36.589Z,99574.69
2023-01-13T22:10:05.680Z,99584.94
2023-01-13T22:12:32.609Z,99582.66
2023-01-13T22:14:59.332Z,99580.34
2023-01-13T22:17:27.768Z,99578.25
2023-01-13T22:19:57.151Z,99582.16
2023-01-13T22:22:24.729Z,99596.72
2023-01-13T22:24:52.787Z,99593.59
2023-01-13T22:27:21.509Z,99590.09
2023-01-13T22:29:48.837Z,99602.16
2023-01-13T22:32:15.843Z,99602.41
2023-01-13T22:34:42.894Z,99606.31
2023-01-13T22:37:09.708Z,99600.16
2023-01-13T22:39:36.514Z,99600.28
2023-01-13T22:42:03.654Z,99599.66
2023-01-13T22:44:30.303Z,99603.28
2023-01-13T22:46:56.879Z,99602.56
2023-01-13T22:49:23.535Z,99593.84
2023-01-13T22:51:50.199Z,99595.56
2023-01-13T22:54:17.821Z,99615.38
2023-01-13T22:56:44.521Z,99610.22
2023-01-13T22:59:13.242Z,99607.41
2023-01-13T23:01:40.983Z,99601.38
2023-01-13T23:04:08.042Z,99596.41
2023-01-13T23:06:35.297Z,99616.25
2023-01-13T23:09:01.983Z,99618.22
2023-01-13T23:11:29.689Z,99620.34
2023-01-13T23:14:01.128Z,99616.88
2023-01-13T23:16:29.043Z,99606.53
2023-01-13T23:18:55.622Z,99594.06
2023-01-13T23:21:24.792Z,99586.81
2023-01-13T23:23:51.799Z,99586.59
2023-01-13T23:26:18.864Z,99595.59
2023-01-13T23:28:45.505Z,99597.66
2023-01-13T23:31:17.335Z,99613.53
2023-01-13T23:33:44.751Z,99603.47
2023-01-13T23:36:17.938Z,99608.38
2023-01-13T23:38:45.124Z,99594.16
2023-01-13T23:41:16.124Z,99589.22
2023-01-13T23:43:42.883Z,99585.75
2023-01-13T23:46:13.987Z,99578.38
2023-01-13T23:48:40.634Z,99589.25
2023-01-13T23:51:10.077Z,99588.09
2023-01-13T23:53:40.327Z,99583.22
2023-01-13T23:56:10.299Z,99580.31
2023-01-13T23:58:36.961Z,99585.47
